createdAt,value
2023-04-02T00:00:23.996Z,98345.19
2023-04-02T00:02:46.570Z,98347.28
2023-04-02T00:05:34.939Z,98343.59
2023-04-02T00:07:40.822Z,98347.63
2023-04-02T00:09:43.440Z,98357.31
2023-04-02T00:11:49.468Z,98354.97
2023-04-02T00:13:52.883Z,98356.63
2023-04-02T00:15:58.220Z,98349.63
2023-04-02T00:18:02.396Z,98353.34
2023-04-02T00:20:07.557Z,98360.56
2023-04-02T00:22:20.164Z,98360.81
2023-04-02T00:24:24.426Z,98366.94
2023-04-02T00:26:32.714Z,98364.84
2023-04-02T00:28:35.916Z,98365.44
2023-04-02T00:30:38.997Z,98370.00
2023-04-02T00:32:43.121Z,98367.66
2023-04-02T00:34:46.267Z,98368.69
2023-04-02T00:36:50.116Z,98369.28
2023-04-02T00:38:54.328Z,98370.09
2023-04-02T00:41:02.447Z,98364.41
2023-04-02T00:43:07.250Z,98370.94
2023-04-02T00:45:19.089Z,98370.69
2023-04-02T00:47:25.239Z,98374.44
2023-04-02T00:49:36.109Z,98372.09
2023-04-02T00:51:44.987Z,98380.69
2023-04-02T00:53:49.800Z,98376.97
2023-04-02T00:55:53.660Z,98370.78
2023-04-02T00:57:59.917Z,98374.78
2023-04-02T01:00:19.733Z,98373.38
2023-04-02T01:02:29.266Z,98374.88
2023-04-02T01:04:35.092Z,98378.81
2023-04-02T01:06:39.358Z,98378.63
2023-04-02T01:08:55.078Z,98378.94
2023-04-02T01:11:06.556Z,98382.78
2023-04-02T01:13:21.192Z,98379.06
2023-04-02T01:15:30.574Z,98380.69
2023-04-02T01:17:49.148Z,98377.44
2023-04-02T01:20:25.367Z,98380.69
2023-04-02T01:22:36.843Z,98381.72
2023-04-02T01:24:40.114Z,98391.41
2023-04-02T01:26:58.051Z,98386.06
2023-04-02T01:29:07.194Z,98389.53
2023-04-02T01:31:11.461Z,98390.59
2023-04-02T01:33:14.554Z,98387.91
2023-04-02T01:35:17.989Z,98393.25
2023-04-02T01:37:37.387Z,98394.28
2023-04-02T01:39:52.924Z,98387.91
2023-04-02T01:42:04.156Z,98388.72
2023-04-02T01:44:12.753Z,98396.75
2023-04-02T01:46:26.767Z,98389.75
2023-04-02T01:48:31.651Z,98400.03
2023-04-02T01:50:37.538Z,98402.69
2023-04-02T01:52:43.882Z,98400.03
2023-04-02T01:54:49.514Z,98400.03
2023-04-02T01:56:53.120Z,98401.06
2023-04-02T01:58:58.063Z,98396.41
2023-04-02T02:01:07.481Z,98407.13
2023-04-02T02:03:13.518Z,98401.78
2023-04-02T02:05:19.536Z,98416.53
2023-04-02T02:07:23.829Z,98411.19
2023-04-02T02:09:33.513Z,98417.34
2023-04-02T02:11:36.854Z,98420.63
2023-04-02T02:13:42.259Z,98418.97
2023-04-02T02:15:45.473Z,98424.31
2023-04-02T02:17:51.167Z,98420.50
2023-04-02T02:19:59.072Z,98421.88
2023-04-02T02:22:09.953Z,98420.59
2023-04-02T02:24:20.150Z,98422.81
2023-04-02T02:26:26.716Z,98425.81
2023-04-02T02:28:34.069Z,98423.28
2023-04-02T02:30:39.586Z,98425.72
2023-04-02T02:32:54.259Z,98423.97
2023-04-02T02:35:02.356Z,98428.72
2023-04-02T02:37:09.507Z,98427.91
2023-04-02T02:39:18.352Z,98429.22
2023-04-02T02:41:31.162Z,98432.59
2023-04-02T02:43:40.017Z,98435.72
2023-04-02T02:45:45.719Z,98432.72
2023-04-02T02:47:50.018Z,98436.75
2023-04-02T02:49:59.050Z,98437.81
2023-04-02T02:52:14.126Z,98440.25
2023-04-02T02:54:33.431Z,98449.78
2023-04-02T02:56:40.632Z,98446.28
2023-04-02T02:58:43.834Z,98445.34
2023-04-02T03:00:58.091Z,98451.63
2023-04-02T03:03:04.502Z,98457.28
2023-04-02T03:05:10.687Z,98454.84
2023-04-02T03:07:16.512Z,98460.09
2023-04-02T03:09:28.752Z,98454.03
2023-04-02T03:11:41.265Z,98449.16
2023-04-02T03:13:52.481Z,98452.41
2023-04-02T03:16:02.827Z,98452.19
2023-04-02T03:18:11.541Z,98455.09
2023-04-02T03:20:22.915Z,98462.78
2023-04-02T03:22:32.457Z,98467.31
2023-04-02T03:24:40.151Z,98472.44
2023-04-02T03:26:49.954Z,98474.16
2023-04-02T03:28:58.554Z,98474.75
2023-04-02T03:31:06.294Z,98478.50
2023-04-02T03:33:15.718Z,98479.16
2023-04-02T03:35:25.458Z,98486.47
2023-04-02T03:37:33.445Z,98486.78
2023-04-02T03:39:42.250Z,98491.56
2023-04-02T03:41:52.117Z,98495.41
2023-04-02T03:44:01.234Z,98503.63
2023-04-02T03:46:15.618Z,98502.38
2023-04-02T03:48:26.904Z,98511.75
2023-04-02T03:50:36.097Z,98519.56
2023-04-02T03:52:39.904Z,98515.84
2023-04-02T03:54:54.010Z,98513.38
2023-04-02T03:57:00.751Z,98526.47
2023-04-02T03:59:15.235Z,98524.84
2023-04-02T04:01:26.517Z,98521.97
2023-04-02T04:03:32.993Z,98540.16
2023-04-02T04:05:43.912Z,98535.47
2023-04-02T04:07:47.401Z,98549.06
2023-04-02T04:09:53.296Z,98543.28
2023-04-02T04:12:08.642Z,98548.38
2023-04-02T04:14:18.771Z,98550.59
2023-04-02T04:16:26.974Z,98549.19
2023-04-02T04:18:35.269Z,98557.56
2023-04-02T04:20:51.133Z,98564.50
2023-04-02T04:22:56.202Z,98565.50
2023-04-02T04:25:03.339Z,98573.84
2023-04-02T04:27:13.284Z,98579.00
2023-04-02T04:29:32.356Z,98583.22
2023-04-02T04:31:40.686Z,98584.41
2023-04-02T04:33:50.920Z,98588.88
2023-04-02T04:36:02.354Z,98590.72
2023-04-02T04:38:15.956Z,98601.56
2023-04-02T04:40:22.936Z,98596.78
2023-04-02T04:42:33.093Z,98608.06
2023-04-02T04:44:43.969Z,98617.97
2023-04-02T04:46:53.057Z,98618.34
2023-04-02T04:49:05.527Z,98627.56
2023-04-02T04:51:20.694Z,98631.47
2023-04-02T04:53:27.109Z,98631.16
2023-04-02T04:55:39.000Z,98631.53
2023-04-02T04:57:43.552Z,98635.66
2023-04-02T04:59:56.454Z,98640.63
2023-04-02T05:02:06.400Z,98650.28
2023-04-02T05:04:16.920Z,98653.56
2023-04-02T05:08:53.173Z,98660.78
2023-04-02T05:11:01.740Z,98663.66
2023-04-02T05:13:11.710Z,98673.75
2023-04-02T05:15:20.704Z,98681.31
2023-04-02T05:17:29.495Z,98685.03
2023-04-02T05:19:39.471Z,98684.16
2023-04-02T05:21:49.432Z,98688.72
2023-04-02T05:24:00.672Z,98694.88
2023-04-02T05:26:09.232Z,98701.22
2023-04-02T05:28:20.111Z,98704.94
2023-04-02T05:30:47.075Z,98706.97
2023-04-02T05:32:57.734Z,98710.03
2023-04-02T05:35:07.915Z,98713.31
2023-04-02T05:37:18.602Z,98720.91
2023-04-02T05:39:24.730Z,98733.00
2023-04-02T05:41:37.272Z,98729.09
2023-04-02T05:43:46.754Z,98732.19
2023-04-02T05:45:54.889Z,98737.28
2023-04-02T05:48:02.323Z,98741.19
2023-04-02T05:50:27.524Z,98746.53
2023-04-02T05:52:36.636Z,98743.44
2023-04-02T05:54:47.798Z,98747.34
2023-04-02T05:56:55.422Z,98748.97
2023-04-02T05:59:05.105Z,98750.00
2023-04-02T06:01:29.685Z,98751.44
2023-04-02T06:03:46.514Z,98752.88
2023-04-02T06:05:54.104Z,98746.53
2023-04-02T06:08:01.837Z,98768.25
2023-04-02T06:10:12.523Z,98773.53
2023-04-02T06:12:25.111Z,98778.06
2023-04-02T06:14:28.265Z,98778.66
2023-04-02T06:16:33.739Z,98789.94
2023-04-02T06:18:37.966Z,98791.94
2023-04-02T06:20:40.924Z,98803.84
2023-04-02T06:22:47.676Z,98804.06
2023-04-02T06:24:55.672Z,98806.69
2023-04-02T06:27:06.793Z,98816.56
2023-04-02T06:29:17.986Z,98825.16
2023-04-02T06:31:30.973Z,98834.75
2023-04-02T06:33:34.242Z,98837.78
2023-04-02T06:35:40.722Z,98838.34
2023-04-02T06:37:48.327Z,98855.56
2023-04-02T06:39:59.769Z,98858.78
2023-04-02T06:42:11.276Z,98859.25
2023-04-02T06:44:37.124Z,98867.97
2023-04-02T06:47:04.810Z,98876.88
2023-04-02T06:49:16.921Z,98882.66
2023-04-02T06:51:25.921Z,98885.66
2023-04-02T06:53:33.516Z,98883.72
2023-04-02T06:55:43.878Z,98886.91
2023-04-02T06:57:48.894Z,98897.38
2023-04-02T06:59:53.203Z,98897.81
2023-04-02T07:02:04.015Z,98900.84
2023-04-02T07:04:07.715Z,98905.38
2023-04-02T07:06:18.274Z,98907.56
2023-04-02T07:08:23.754Z,98914.41
2023-04-02T07:10:27.343Z,98919.66
2023-04-02T07:12:30.393Z,98922.25
2023-04-02T07:14:35.332Z,98923.84
2023-04-02T07:16:38.872Z,98929.16
2023-04-02T07:18:42.001Z,98929.66
2023-04-02T07:20:45.223Z,98938.88
2023-04-02T07:22:50.833Z,98940.91
2023-04-02T07:24:53.931Z,98937.19
2023-04-02T07:26:57.000Z,98951.13
2023-04-02T07:28:59.899Z,98945.38
2023-04-02T07:31:04.392Z,98950.63
2023-04-02T07:33:07.625Z,98955.94
2023-04-02T07:35:11.530Z,98960.56
2023-04-02T07:37:15.044Z,98963.25
2023-04-02T07:39:18.031Z,98971.22
2023-04-02T07:41:22.318Z,98977.59
2023-04-02T07:43:25.122Z,98970.53
2023-04-02T07:45:28.171Z,98979.22
2023-04-02T07:47:32.701Z,98976.81
2023-04-02T07:49:35.870Z,98982.63
2023-04-02T07:51:38.990Z,98984.91
2023-04-02T07:53:42.040Z,98990.63
2023-04-02T07:55:44.837Z,98992.25
2023-04-02T07:57:52.841Z,98993.13
2023-04-02T07:59:57.435Z,98997.56
2023-04-02T08:02:00.408Z,99006.16
2023-04-02T08:04:05.792Z,99004.34
2023-04-02T08:06:08.381Z,99005.13
2023-04-02T08:08:11.453Z,99011.16
2023-04-02T08:10:14.395Z,99006.50
2023-04-02T08:12:17.234Z,99017.06
2023-04-02T08:14:20.516Z,99020.97
2023-04-02T08:16:25.599Z,99017.88
2023-04-02T08:18:29.061Z,99025.84
2023-04-02T08:20:33.478Z,99035.56
2023-04-02T08:22:36.712Z,99030.97
2023-04-02T08:24:39.604Z,99029.81
2023-04-02T08:26:43.974Z,99029.13
2023-04-02T08:28:48.316Z,99043.44
2023-04-02T08:30:51.760Z,99046.78
2023-04-02T08:32:54.658Z,99046.09
2023-04-02T08:34:57.796Z,99049.50
2023-04-02T08:37:02.249Z,99060.41
2023-04-02T08:39:05.997Z,99055.22
2023-04-02T08:41:17.480Z,99055.97
2023-04-02T08:43:42.195Z,99059.50
2023-04-02T08:46:01.970Z,99061.38
2023-04-02T08:48:06.849Z,99073.94
2023-04-02T08:50:19.994Z,99071.06
2023-04-02T08:52:26.991Z,99074.78
2023-04-02T08:54:34.328Z,99071.09
2023-04-02T08:56:42.822Z,99083.28
2023-04-02T08:58:52.232Z,99073.19
2023-04-02T09:01:02.658Z,99083.25
2023-04-02T09:03:11.296Z,99083.06
2023-04-02T09:05:21.062Z,99086.38
2023-04-02T09:07:27.013Z,99090.91
2023-04-02T09:09:36.043Z,99096.13
2023-04-02T09:11:47.796Z,99087.44
2023-04-02T09:13:56.034Z,99092.34
2023-04-02T09:16:04.268Z,99099.22
2023-04-02T09:18:14.638Z,99098.44
2023-04-02T09:20:21.668Z,99097.31
2023-04-02T09:22:27.825Z,99104.59
2023-04-02T09:24:30.714Z,99108.19
2023-04-02T09:26:34.874Z,99103.84
2023-04-02T09:28:38.718Z,99109.84
2023-04-02T09:30:56.579Z,99108.47
2023-04-02T09:33:02.590Z,99116.03
2023-04-02T09:35:36.364Z,99123.06
2023-04-02T09:37:37.816Z,99130.03
2023-04-02T09:39:41.475Z,99142.75
2023-04-02T09:41:48.221Z,99135.16
2023-04-02T09:44:21.539Z,99137.44
2023-04-02T09:46:26.318Z,99139.84
2023-04-02T09:48:32.158Z,99144.56
2023-04-02T09:50:35.471Z,99151.50
2023-04-02T09:52:39.920Z,99153.53
2023-04-02T09:54:43.335Z,99154.88
2023-04-02T09:57:03.877Z,99161.94
2023-04-02T09:59:15.662Z,99162.56
2023-04-02T10:01:29.711Z,99161.59
2023-04-02T10:03:34.689Z,99169.84
2023-04-02T10:05:40.926Z,99165.00
2023-04-02T10:07:49.023Z,99161.97
2023-04-02T10:09:59.544Z,99164.06
2023-04-02T10:12:06.181Z,99175.50
2023-04-02T10:14:16.509Z,99183.03
2023-04-02T10:16:27.202Z,99180.00
2023-04-02T10:18:40.215Z,99178.91
2023-04-02T10:20:51.365Z,99193.88
2023-04-02T10:22:56.273Z,99188.22
2023-04-02T10:24:59.875Z,99184.66
2023-04-02T10:27:18.062Z,99190.69
2023-04-02T10:29:35.552Z,99189.69
2023-04-02T10:31:44.695Z,99196.00
2023-04-02T10:33:52.310Z,99198.25
2023-04-02T10:36:02.932Z,99200.13
2023-04-02T10:38:25.483Z,99200.81
2023-04-02T10:40:32.445Z,99204.94
2023-04-02T10:42:41.556Z,99206.91
2023-04-02T10:44:53.426Z,99204.00
2023-04-02T10:47:08.447Z,99215.03
2023-04-02T10:49:23.245Z,99209.66
2023-04-02T10:51:32.646Z,99212.91
2023-04-02T10:53:46.386Z,99210.59
2023-04-02T10:55:55.667Z,99217.31
2023-04-02T10:58:01.056Z,99233.31
2023-04-02T11:00:18.686Z,99231.78
2023-04-02T11:02:32.325Z,99234.81
2023-04-02T11:04:42.848Z,99238.72
2023-04-02T11:06:50.990Z,99238.19
2023-04-02T11:09:01.485Z,99242.59
2023-04-02T11:11:09.617Z,99253.13
2023-04-02T11:13:21.207Z,99251.28
2023-04-02T11:15:24.684Z,99256.84
2023-04-02T11:17:27.905Z,99254.25
2023-04-02T11:19:32.234Z,99257.50
2023-04-02T11:21:51.023Z,99255.69
2023-04-02T11:24:03.288Z,99259.44
2023-04-02T11:26:48.767Z,99266.25
2023-04-02T11:29:03.966Z,99264.41
2023-04-02T11:31:07.345Z,99273.41
2023-04-02T11:33:44.801Z,99280.00
2023-04-02T11:35:49.430Z,99273.22
2023-04-02T11:37:53.018Z,99275.16
2023-04-02T11:39:59.487Z,99282.84
2023-04-02T11:42:06.129Z,99279.25
2023-04-02T11:44:23.466Z,99285.00
2023-04-02T11:46:42.050Z,99287.81
2023-04-02T11:48:45.596Z,99298.09
2023-04-02T11:50:48.866Z,99292.59
2023-04-02T11:52:53.860Z,99299.47
2023-04-02T11:55:02.077Z,99295.25
2023-04-02T11:57:18.454Z,99293.84
2023-04-02T11:59:30.995Z,99300.34
2023-04-02T12:02:00.029Z,99298.91
2023-04-02T12:04:39.777Z,99304.66
2023-04-02T12:06:55.092Z,99305.22
2023-04-02T12:09:10.595Z,99315.16
2023-04-02T12:11:16.129Z,99318.81
2023-04-02T12:13:20.331Z,99326.94
2023-04-02T12:15:44.647Z,99323.44
2023-04-02T12:17:47.578Z,99324.69
2023-04-02T12:19:52.758Z,99325.81
2023-04-02T12:21:56.794Z,99329.97
2023-04-02T12:24:00.969Z,99326.72
2023-04-02T12:26:06.868Z,99329.88
2023-04-02T12:28:20.877Z,99325.13
2023-04-02T12:30:24.457Z,99326.31
2023-04-02T12:32:30.113Z,99333.44
2023-04-02T12:34:33.495Z,99334.63
2023-04-02T12:36:36.419Z,99330.03
2023-04-02T12:38:46.222Z,99339.16
2023-04-02T12:40:56.498Z,99342.09
2023-04-02T12:42:59.638Z,99344.84
2023-04-02T12:45:07.040Z,99352.56
2023-04-02T12:47:14.026Z,99348.13
2023-04-02T12:49:31.670Z,99352.13
2023-04-02T12:51:36.717Z,99352.25
2023-04-02T12:53:41.478Z,99350.72
2023-04-02T12:55:47.940Z,99364.25
2023-04-02T12:57:55.988Z,99361.72
2023-04-02T13:00:00.297Z,99362.13
2023-04-02T13:02:18.968Z,99367.53
2023-04-02T13:04:22.460Z,99364.34
2023-04-02T13:06:26.849Z,99372.22
2023-04-02T13:08:33.431Z,99374.13
2023-04-02T13:10:37.146Z,99369.88
2023-04-02T13:12:41.622Z,99372.16
2023-04-02T13:14:44.605Z,99386.06
2023-04-02T13:16:48.352Z,99393.47
2023-04-02T13:19:09.445Z,99387.94
2023-04-02T13:21:28.168Z,99393.53
2023-04-02T13:23:37.707Z,99392.03
2023-04-02T13:25:40.635Z,99393.84
2023-04-02T13:27:43.616Z,99393.09
2023-04-02T13:29:46.846Z,99396.28
2023-04-02T13:31:50.378Z,99390.03
2023-04-02T13:33:54.808Z,99400.03
2023-04-02T13:35:58.009Z,99408.75
2023-04-02T13:38:03.282Z,99410.03
2023-04-02T13:40:09.090Z,99414.03
2023-04-02T13:42:13.204Z,99408.69
2023-04-02T13:44:21.225Z,99414.09
2023-04-02T13:46:26.675Z,99415.19
2023-04-02T13:48:29.777Z,99423.56
2023-04-02T13:50:36.544Z,99413.66
2023-04-02T13:52:39.908Z,99416.53
2023-04-02T13:54:49.328Z,99419.81
2023-04-02T13:56:53.046Z,99422.13
2023-04-02T13:58:56.044Z,99421.66
2023-04-02T14:00:59.135Z,99425.94
2023-04-02T14:03:07.633Z,99426.81
2023-04-02T14:05:23.216Z,99427.06
2023-04-02T14:07:39.524Z,99429.59
2023-04-02T14:09:55.395Z,99424.50
2023-04-02T14:12:04.849Z,99422.66
2023-04-02T14:14:31.605Z,99427.31
2023-04-02T14:16:42.576Z,99445.88
2023-04-02T14:19:06.584Z,99447.34
2023-04-02T14:21:20.415Z,99446.63
2023-04-02T14:23:37.982Z,99454.91
2023-04-02T14:25:50.865Z,99456.09
2023-04-02T14:28:00.017Z,99460.13
2023-04-02T14:30:09.943Z,99461.50
2023-04-02T14:32:20.730Z,99463.66
2023-04-02T14:34:33.392Z,99464.09
2023-04-02T14:36:44.767Z,99467.31
2023-04-02T14:38:58.135Z,99469.78
2023-04-02T14:41:09.116Z,99469.03
2023-04-02T14:43:16.775Z,99469.97
2023-04-02T14:45:31.932Z,99471.69
2023-04-02T14:47:39.901Z,99475.09
2023-04-02T14:49:46.200Z,99485.56
2023-04-02T14:51:53.215Z,99488.59
2023-04-02T14:54:05.053Z,99481.53
2023-04-02T14:56:10.935Z,99493.66
2023-04-02T14:58:20.094Z,99488.59
2023-04-02T15:00:29.169Z,99496.69
2023-04-02T15:02:42.728Z,99491.81
2023-04-02T15:04:50.112Z,99494.03
2023-04-02T15:06:57.915Z,99497.22
2023-04-02T15:09:09.389Z,99497.13
2023-04-02T15:11:18.725Z,99494.97
2023-04-02T15:13:26.232Z,99494.19
2023-04-02T15:15:40.865Z,99495.31
2023-04-02T15:17:44.031Z,99503.19
2023-04-02T15:19:47.183Z,99507.06
2023-04-02T15:22:20.201Z,99502.91
2023-04-02T15:24:31.969Z,99521.63
2023-04-02T15:26:47.172Z,99518.16
2023-04-02T15:28:59.911Z,99512.56
2023-04-02T15:31:12.253Z,99520.00
2023-04-02T15:33:41.785Z,99522.81
2023-04-02T15:35:48.597Z,99532.59
2023-04-02T15:37:58.816Z,99527.78
2023-04-02T15:40:24.187Z,99544.38
2023-04-02T15:42:29.577Z,99529.31
2023-04-02T15:44:34.350Z,99541.06
2023-04-02T15:46:52.261Z,99533.91
2023-04-02T15:49:15.735Z,99540.91
2023-04-02T15:51:35.671Z,99543.81
2023-04-02T15:53:48.677Z,99544.47
2023-04-02T15:56:15.493Z,99553.25
2023-04-02T15:58:25.114Z,99557.47
2023-04-02T16:00:31.004Z,99554.78
2023-04-02T16:03:02.871Z,99557.91
2023-04-02T16:05:14.129Z,99559.53
2023-04-02T16:07:30.186Z,99563.00
2023-04-02T16:09:37.796Z,99559.63
2023-04-02T16:11:42.117Z,99569.34
2023-04-02T16:13:45.257Z,99563.00
2023-04-02T16:15:53.966Z,99572.63
2023-04-02T16:18:02.384Z,99578.63
2023-04-02T16:20:18.530Z,99577.44
2023-04-02T16:22:25.641Z,99580.19
2023-04-02T16:24:28.605Z,99583.88
2023-04-02T16:26:48.157Z,99591.38
2023-04-02T16:29:03.800Z,99586.88
2023-04-02T16:31:11.618Z,99587.34
2023-04-02T16:33:29.609Z,99596.63
2023-04-02T16:35:43.423Z,99599.91
2023-04-02T16:37:52.116Z,99604.38
2023-04-02T16:40:03.357Z,99603.91
2023-04-02T16:42:19.539Z,99611.38
2023-04-02T16:44:32.615Z,99608.53
2023-04-02T16:46:47.540Z,99612.44
2023-04-02T16:48:58.846Z,99614.75
2023-04-02T16:51:14.848Z,99608.97
2023-04-02T16:53:27.998Z,99609.59
2023-04-02T16:55:48.230Z,99618.66
2023-04-02T16:58:03.723Z,99619.59
2023-04-02T17:00:17.766Z,99621.81
2023-04-02T17:02:31.676Z,99618.00
2023-04-02T17:04:57.195Z,99621.50
2023-04-02T17:07:10.758Z,99631.47
2023-04-02T17:09:17.209Z,99629.09
2023-04-02T17:11:24.561Z,99629.34
2023-04-02T17:13:39.493Z,99640.16
2023-04-02T17:15:47.310Z,99640.91
2023-04-02T17:17:50.262Z,99639.50
2023-04-02T17:19:59.081Z,99639.38
2023-04-02T17:22:04.187Z,99645.72
2023-04-02T17:24:21.943Z,99644.13
2023-04-02T17:26:28.416Z,99653.91
2023-04-02T17:28:38.346Z,99646.22
2023-04-02T17:30:45.272Z,99653.41
2023-04-02T17:32:48.613Z,99653.56
2023-04-02T17:34:51.698Z,99660.38
2023-04-02T17:37:03.152Z,99664.69
2023-04-02T17:39:18.253Z,99664.34
2023-04-02T17:41:26.716Z,99668.34
2023-04-02T17:43:43.455Z,99669.00
2023-04-02T17:45:52.515Z,99674.13
2023-04-02T17:48:02.293Z,99671.16
2023-04-02T17:50:26.179Z,99674.13
2023-04-02T17:52:34.255Z,99675.63
2023-04-02T17:54:45.997Z,99680.81
2023-04-02T17:57:00.629Z,99691.13
2023-04-02T17:59:15.407Z,99682.47
2023-04-02T18:01:25.857Z,99684.59
2023-04-02T18:03:58.588Z,99691.13
2023-04-02T18:06:06.944Z,99691.13
2023-04-02T18:08:19.275Z,99680.75
2023-04-02T18:10:31.694Z,99693.53
2023-04-02T18:12:50.945Z,99698.22
2023-04-02T18:15:06.005Z,99703.22
2023-04-02T18:17:17.426Z,99690.22
2023-04-02T18:19:30.890Z,99693.88
2023-04-02T18:21:43.793Z,99702.56
2023-04-02T18:23:59.415Z,99708.53
2023-04-02T18:26:11.767Z,99701.97
2023-04-02T18:28:26.040Z,99704.91
2023-04-02T18:30:37.528Z,99705.75
2023-04-02T18:33:00.232Z,99710.38
2023-04-02T18:35:14.600Z,99707.06
2023-04-02T18:37:28.785Z,99716.19
2023-04-02T18:39:45.744Z,99717.88
2023-04-02T18:41:55.240Z,99720.00
2023-04-02T18:44:13.955Z,99722.19
2023-04-02T18:46:26.571Z,99731.03
2023-04-02T18:48:41.391Z,99721.91
2023-04-02T18:50:47.152Z,99733.19
2023-04-02T18:52:51.100Z,99726.19
2023-04-02T18:55:00.823Z,99729.03
2023-04-02T18:57:11.954Z,99733.25
2023-04-02T18:59:34.990Z,99740.66
2023-04-02T19:03:50.791Z,99739.34
2023-04-02T19:05:58.837Z,99744.84
2023-04-02T19:08:09.021Z,99748.53
2023-04-02T19:10:26.202Z,99750.16
2023-04-02T19:12:32.742Z,99754.53
2023-04-02T19:14:35.702Z,99753.84
2023-04-02T19:16:58.625Z,99758.16
2023-04-02T19:19:11.600Z,99755.50
2023-04-02T19:21:26.354Z,99770.97
2023-04-02T19:23:43.906Z,99761.34
2023-04-02T19:26:01.183Z,99770.28
2023-04-02T19:28:22.340Z,99767.13
2023-04-02T19:30:40.055Z,99770.09
2023-04-02T19:32:53.880Z,99774.63
2023-04-02T19:35:10.386Z,99779.44
2023-04-02T19:37:16.112Z,99776.47
2023-04-02T19:39:53.028Z,99782.59
2023-04-02T19:42:03.811Z,99784.94
2023-04-02T19:44:11.701Z,99784.13
2023-04-02T19:46:16.226Z,99796.59
2023-04-02T19:48:24.591Z,99791.75
2023-04-02T19:50:28.492Z,99786.81
2023-04-02T19:52:31.470Z,99792.78
2023-04-02T19:54:35.810Z,99791.41
2023-04-02T19:56:39.982Z,99781.31
2023-04-02T19:58:42.913Z,99785.78
2023-04-02T20:00:46.124Z,99797.06
2023-04-02T20:02:49.201Z,99788.25
2023-04-02T20:04:53.621Z,99800.38
2023-04-02T20:06:56.564Z,99798.69
2023-04-02T20:09:00.041Z,99801.03
2023-04-02T20:11:03.588Z,99807.69
2023-04-02T20:13:06.513Z,99799.22
2023-04-02T20:15:10.455Z,99801.53
2023-04-02T20:17:13.525Z,99799.22
2023-04-02T20:19:16.565Z,99805.41
2023-04-02T20:21:22.046Z,99800.97
2023-04-02T20:23:24.726Z,99809.88
2023-04-02T20:25:27.554Z,99804.09
2023-04-02T20:27:31.523Z,99805.94
2023-04-02T20:29:34.564Z,99814.06
2023-04-02T20:31:37.640Z,99815.25
2023-04-02T20:33:41.268Z,99816.06
2023-04-02T20:35:44.765Z,99816.91
2023-04-02T20:37:49.208Z,99817.09
2023-04-02T20:39:52.564Z,99831.69
2023-04-02T20:41:58.467Z,99832.84
2023-04-02T20:44:01.552Z,99824.41
2023-04-02T20:46:10.120Z,99830.38
2023-04-02T20:48:13.779Z,99829.34
2023-04-02T20:50:16.972Z,99828.19
2023-04-02T20:52:20.004Z,99835.19
2023-04-02T20:54:24.673Z,99833.69
2023-04-02T20:56:28.183Z,99828.72
2023-04-02T20:58:31.245Z,99843.47
2023-04-02T21:00:34.510Z,99835.00
2023-04-02T21:02:37.784Z,99848.78
2023-04-02T21:04:40.825Z,99854.94
2023-04-02T21:06:43.844Z,99846.66
2023-04-02T21:08:47.210Z,99853.09
2023-04-02T21:10:51.582Z,99851.63
2023-04-02T21:12:54.612Z,99860.91
2023-04-02T21:15:01.089Z,99854.94
2023-04-02T21:17:07.427Z,99860.06
2023-04-02T21:19:11.085Z,99853.59
2023-04-02T21:21:15.838Z,99870.03
2023-04-02T21:23:18.633Z,99865.06
2023-04-02T21:25:21.887Z,99869.72
2023-04-02T21:27:26.720Z,99868.22
2023-04-02T21:29:29.826Z,99874.19
2023-04-02T21:31:35.364Z,99872.69
2023-04-02T21:33:40.454Z,99878.34
2023-04-02T21:35:43.309Z,99876.34
2023-04-02T21:37:46.294Z,99875.84
2023-04-02T21:39:49.499Z,99881.31
2023-04-02T21:41:53.603Z,99884.13
2023-04-02T21:44:00.022Z,99882.31
2023-04-02T21:46:03.042Z,99876.53
2023-04-02T21:48:06.407Z,99883.28
2023-04-02T21:50:10.632Z,99890.78
2023-04-02T21:52:13.430Z,99886.31
2023-04-02T21:54:17.051Z,99890.63
2023-04-02T21:56:22.997Z,99880.00
2023-04-02T21:58:25.963Z,99897.94
2023-04-02T22:00:30.653Z,99888.16
2023-04-02T22:02:33.600Z,99897.44
2023-04-02T22:04:36.658Z,99897.91
2023-04-02T22:06:41.763Z,99896.44
2023-04-02T22:08:45.274Z,99894.09
2023-04-02T22:10:48.347Z,99902.25
2023-04-02T22:12:52.014Z,99897.41
2023-04-02T22:14:55.066Z,99907.38
2023-04-02T22:16:59.764Z,99902.56
2023-04-02T22:19:05.924Z,99913.19
2023-04-02T22:21:09.143Z,99903.91
2023-04-02T22:23:12.315Z,99905.88
2023-04-02T22:25:15.277Z,99901.22
2023-04-02T22:27:18.263Z,99909.19
2023-04-02T22:29:21.335Z,99907.38
2023-04-02T22:31:26.761Z,99910.53
2023-04-02T22:33:32.772Z,99912.53
2023-04-02T22:35:35.741Z,99922.47
2023-04-02T22:37:38.601Z,99911.72
2023-04-02T22:39:41.619Z,99914.50
2023-04-02T22:41:44.477Z,99910.88
2023-04-02T22:43:47.454Z,99908.91
2023-04-02T22:45:50.365Z,99912.03
2023-04-02T22:47:53.515Z,99912.03
2023-04-02T22:49:57.860Z,99922.34
2023-04-02T22:52:00.911Z,99912.38
2023-04-02T22:54:04.022Z,99909.84
2023-04-02T22:56:08.425Z,99917.84
2023-04-02T22:58:11.317Z,99920.84
2023-04-02T23:00:16.743Z,99921.50
2023-04-02T23:02:19.882Z,99919.69
2023-04-02T23:04:22.913Z,99925.97
2023-04-02T23:06:27.440Z,99929.13
2023-04-02T23:08:30.943Z,99933.44
2023-04-02T23:10:34.061Z,99928.28
2023-04-02T23:12:37.095Z,99927.00
2023-04-02T23:14:40.273Z,99933.44
2023-04-02T23:16:43.237Z,99929.13
2023-04-02T23:18:48.363Z,99935.25
2023-04-02T23:20:51.426Z,99930.94
2023-04-02T23:22:56.007Z,99919.81
2023-04-02T23:24:58.942Z,99925.47
2023-04-02T23:27:01.872Z,99933.59
2023-04-02T23:29:06.642Z,99930.44
2023-04-02T23:31:12.925Z,99931.09
2023-04-02T23:33:15.976Z,99921.94
2023-04-02T23:35:18.766Z,99923.78
2023-04-02T23:37:21.684Z,99925.78
2023-04-02T23:39:26.036Z,99931.25
2023-04-02T23:41:30.084Z,99934.41
2023-04-02T23:43:33.034Z,99931.78
2023-04-02T23:45:36.726Z,99926.44
2023-04-02T23:47:39.642Z,99931.59
2023-04-02T23:49:47.867Z,99923.59
2023-04-02T23:51:51.482Z,99929.75
2023-04-02T23:53:55.763Z,99925.38
2023-04-02T23:56:00.304Z,99932.19
2023-04-02T23:58:04.323Z,99930.19
